Astoria, Illinois
Current Conditions -  °F | °C
As of 2:55 PM on Friday 19 Dec 2014 (Local Time) from KMQB Reporting Station
Overcast Overcast  
Wind Chill: 28°   Ceiling: 3600
Heat Index: 32°   Visibility: 7mi
Dew Point: 26°   Wind: 5mph
Humidity: 77%   Direction: 180°S
Pressure: 30.31"   Gusts: NA
Location:  40.23°N, 90.36°W
Report Text: KMQB 192055Z AUTO 18004KT 7SM SCT027 OVC036 00/M03 A3031 RMK AO2 T00011035
Loading
Personal Weather Stations






























Interactive Weather Map New forecast layout! Learn more

10-Day Weather Forecast

Advertisements
Track Severe Weather on mobile